createdAt,value
2022-11-24T00:00:39.784Z,6.80
2022-11-24T00:03:09.071Z,6.70
2022-11-24T00:05:38.358Z,6.80
2022-11-24T00:08:06.385Z,6.80
2022-11-24T00:10:34.349Z,6.80
2022-11-24T00:13:02.095Z,6.90
2022-11-24T00:15:29.884Z,6.90
2022-11-24T00:17:57.830Z,6.80
2022-11-24T00:20:27.421Z,6.90
2022-11-24T00:22:55.799Z,6.80
2022-11-24T00:25:23.571Z,6.70
2022-11-24T00:27:51.349Z,6.70
2022-11-24T00:30:19.372Z,6.60
2022-11-24T00:32:47.095Z,6.70
2022-11-24T00:35:14.966Z,6.70
2022-11-24T00:37:44.043Z,6.70
2022-11-24T00:40:12.319Z,6.70
2022-11-24T00:42:40.081Z,6.70
2022-11-24T00:45:13.837Z,6.80
2022-11-24T00:47:42.099Z,6.80
2022-11-24T00:50:10.665Z,6.80
2022-11-24T00:52:38.488Z,6.70
2022-11-24T00:55:08.310Z,6.80
2022-11-24T00:57:36.566Z,6.80
2022-11-24T01:00:04.952Z,6.80
2022-11-24T01:02:32.778Z,6.80
2022-11-24T01:05:00.517Z,6.80
2022-11-24T01:07:28.282Z,6.70
2022-11-24T01:09:56.524Z,6.70
2022-11-24T01:12:25.638Z,6.80
2022-11-24T01:14:53.371Z,6.80
2022-11-24T01:17:21.142Z,6.80
2022-11-24T01:19:49.111Z,6.80
2022-11-24T01:22:17.149Z,6.80
2022-11-24T01:24:45.680Z,6.70
2022-11-24T01:27:13.422Z,6.60
2022-11-24T01:29:42.513Z,6.60
2022-11-24T01:32:10.849Z,6.60
2022-11-24T01:34:38.568Z,6.50
2022-11-24T01:37:06.323Z,6.60
2022-11-24T01:39:34.070Z,6.70
2022-11-24T01:42:02.424Z,6.70
2022-11-24T01:44:32.003Z,6.60
2022-11-24T01:47:03.500Z,6.60
2022-11-24T01:49:39.186Z,6.60
2022-11-24T01:52:11.568Z,6.60
2022-11-24T01:54:44.671Z,6.60
2022-11-24T01:57:18.097Z,6.70
2022-11-24T01:59:49.473Z,6.70
2022-11-24T02:02:19.377Z,6.70
2022-11-24T02:04:48.005Z,6.70
2022-11-24T02:07:16.090Z,6.60
2022-11-24T02:09:47.786Z,6.60
2022-11-24T02:12:15.537Z,6.60
2022-11-24T02:14:45.027Z,6.60
2022-11-24T02:17:12.974Z,6.60
2022-11-24T02:19:52.837Z,6.60
2022-11-24T02:22:27.860Z,6.60
2022-11-24T02:25:00.766Z,6.70
2022-11-24T02:27:29.890Z,6.70
2022-11-24T02:29:57.681Z,6.60
2022-11-24T02:32:25.661Z,6.60
2022-11-24T02:35:01.690Z,6.60
2022-11-24T02:37:29.452Z,6.50
2022-11-24T02:39:57.193Z,6.50
2022-11-24T02:42:26.206Z,6.60
2022-11-24T02:44:59.787Z,6.60
2022-11-24T02:47:27.572Z,6.60
2022-11-24T02:49:55.309Z,6.60
2022-11-24T02:52:23.044Z,6.60
2022-11-24T02:54:50.793Z,6.70
2022-11-24T02:57:18.531Z,6.60
2022-11-24T02:59:46.533Z,6.60
2022-11-24T03:02:15.912Z,6.60
2022-11-24T03:04:44.539Z,6.70
2022-11-24T03:07:12.415Z,6.70
2022-11-24T03:09:40.203Z,6.70
2022-11-24T03:12:08.450Z,6.70
2022-11-24T03:14:36.636Z,6.70
2022-11-24T03:17:05.115Z,6.80
2022-11-24T03:19:34.274Z,6.80
2022-11-24T03:22:02.029Z,6.70
2022-11-24T03:24:29.779Z,6.70
2022-11-24T03:26:57.512Z,6.80
2022-11-24T03:29:25.285Z,6.80
2022-11-24T03:31:53.034Z,6.70
2022-11-24T03:34:20.761Z,6.70
2022-11-24T03:36:49.830Z,6.70
2022-11-24T03:39:18.059Z,6.70
2022-11-24T03:41:45.782Z,6.70
2022-11-24T03:44:13.506Z,6.70
2022-11-24T03:46:41.285Z,6.70
2022-11-24T03:49:09.886Z,6.70
2022-11-24T03:51:37.767Z,6.70
2022-11-24T03:54:07.263Z,6.80
2022-11-24T03:56:35.182Z,6.70
2022-11-24T03:59:03.055Z,6.70
2022-11-24T04:01:30.866Z,6.70
2022-11-24T04:03:58.629Z,6.70
2022-11-24T04:06:26.427Z,6.70
2022-11-24T04:08:54.248Z,6.70
2022-11-24T04:11:40.831Z,6.60
2022-11-24T04:14:13.333Z,6.60
2022-11-24T04:16:41.579Z,6.70
2022-11-24T04:19:09.842Z,6.70
2022-11-24T04:21:37.730Z,6.70
2022-11-24T04:24:05.697Z,6.70
2022-11-24T04:26:34.855Z,6.70
2022-11-24T04:29:02.656Z,6.60
2022-11-24T04:31:30.487Z,6.60
2022-11-24T04:33:58.320Z,6.60
2022-11-24T04:36:26.111Z,6.70
2022-11-24T04:39:25.671Z,6.70
2022-11-24T04:41:43.834Z,6.70
2022-11-24T04:44:11.562Z,6.70
2022-11-24T04:46:39.396Z,6.80
2022-11-24T04:49:11.445Z,6.80
2022-11-24T04:51:39.337Z,6.80
2022-11-24T04:54:07.860Z,6.80
2022-11-24T04:56:35.693Z,6.80
2022-11-24T04:59:08.515Z,6.90
2022-11-24T05:01:36.673Z,6.80
2022-11-24T05:04:04.744Z,6.90
2022-11-24T05:06:33.088Z,6.90
2022-11-24T05:09:00.857Z,7.00
2022-11-24T05:11:28.646Z,6.90
2022-11-24T05:13:56.419Z,6.90
2022-11-24T05:16:25.619Z,6.90
2022-11-24T05:18:53.466Z,6.90
2022-11-24T05:21:21.241Z,6.90
2022-11-24T05:23:49.224Z,6.90
2022-11-24T05:26:17.012Z,6.90
2022-11-24T05:28:44.791Z,6.80
2022-11-24T05:31:12.648Z,6.80
2022-11-24T05:33:43.448Z,6.70
2022-11-24T05:36:32.021Z,6.80
2022-11-24T05:38:59.949Z,6.80
2022-11-24T05:41:27.980Z,6.90
2022-11-24T05:43:56.169Z,6.90
2022-11-24T05:46:24.005Z,7.00
2022-11-24T05:48:53.146Z,6.90
2022-11-24T05:51:21.002Z,7.00
2022-11-24T05:53:48.863Z,7.00
2022-11-24T05:56:16.636Z,7.00
2022-11-24T05:58:44.764Z,7.00
2022-11-24T06:01:12.544Z,7.00
2022-11-24T06:03:40.275Z,7.00
2022-11-24T06:06:09.932Z,7.10
2022-11-24T06:08:37.753Z,7.10
2022-11-24T06:11:18.421Z,7.10
2022-11-24T06:13:48.411Z,7.10
2022-11-24T06:16:16.516Z,7.10
2022-11-24T06:18:44.401Z,7.10
2022-11-24T06:21:13.513Z,7.10
2022-11-24T06:23:41.745Z,7.10
2022-11-24T06:26:09.796Z,7.10
2022-11-24T06:28:37.626Z,7.20
2022-11-24T06:31:06.826Z,7.10
2022-11-24T06:33:35.518Z,7.10
2022-11-24T06:36:04.704Z,7.10
2022-11-24T06:38:35.708Z,7.10
2022-11-24T06:41:06.164Z,7.10
2022-11-24T06:43:36.610Z,7.20
2022-11-24T06:46:05.095Z,7.20
2022-11-24T06:48:33.719Z,7.30
2022-11-24T06:51:02.341Z,7.20
2022-11-24T06:53:31.480Z,7.20
2022-11-24T06:56:01.539Z,7.30
2022-11-24T06:58:29.719Z,7.20
2022-11-24T07:00:57.489Z,7.30
2022-11-24T07:03:25.378Z,7.30
2022-11-24T07:05:58.051Z,7.30
2022-11-24T07:08:26.639Z,7.40
2022-11-24T07:10:54.430Z,7.30
2022-11-24T07:13:23.628Z,7.30
2022-11-24T07:15:51.398Z,7.40
2022-11-24T07:18:19.174Z,7.40
2022-11-24T07:20:46.946Z,7.40
2022-11-24T07:23:14.695Z,7.30
2022-11-24T07:25:42.456Z,7.30
2022-11-24T07:28:10.321Z,7.30
2022-11-24T07:30:39.455Z,7.30
2022-11-24T07:33:07.184Z,7.30
2022-11-24T07:35:34.950Z,7.20
2022-11-24T07:38:02.762Z,7.10
2022-11-24T07:40:30.551Z,7.10
2022-11-24T07:43:01.502Z,7.00
2022-11-24T07:45:29.389Z,7.10
2022-11-24T07:47:58.607Z,7.00
2022-11-24T07:50:26.429Z,7.10
2022-11-24T07:52:54.411Z,7.10
2022-11-24T07:55:22.308Z,7.20
2022-11-24T07:57:50.122Z,7.30
2022-11-24T08:00:18.946Z,7.30
2022-11-24T08:02:46.730Z,7.40
2022-11-24T08:05:16.048Z,7.50
2022-11-24T08:07:43.931Z,7.50
2022-11-24T08:10:11.776Z,7.50
2022-11-24T08:12:40.416Z,7.40
2022-11-24T08:15:11.355Z,7.50
2022-11-24T08:17:39.443Z,7.50
2022-11-24T08:20:08.764Z,7.50
2022-11-24T08:22:37.923Z,7.50
2022-11-24T08:25:06.224Z,7.60
2022-11-24T08:27:33.997Z,7.70
2022-11-24T08:30:01.795Z,7.80
2022-11-24T08:32:29.718Z,7.80
2022-11-24T08:35:08.574Z,7.90
2022-11-24T08:37:42.857Z,8.00
2022-11-24T08:40:12.153Z,8.20
2022-11-24T08:42:40.036Z,8.30
2022-11-24T08:45:20.466Z,8.30
2022-11-24T08:47:53.546Z,8.40
2022-11-24T08:50:21.491Z,8.50
2022-11-24T08:52:52.001Z,8.50
2022-11-24T08:55:19.929Z,8.50
2022-11-24T08:57:47.815Z,8.50
2022-11-24T09:00:22.206Z,8.60
2022-11-24T09:02:57.177Z,8.70
2022-11-24T09:05:50.609Z,8.80
2022-11-24T09:08:14.179Z,8.80
2022-11-24T09:10:41.961Z,8.70
2022-11-24T09:13:09.737Z,8.70
2022-11-24T09:15:37.502Z,8.80
2022-11-24T09:18:05.365Z,8.70
2022-11-24T09:20:33.125Z,8.70
2022-11-24T09:23:00.960Z,8.70
2022-11-24T09:25:30.090Z,8.60
2022-11-24T09:27:59.766Z,8.70
2022-11-24T09:30:28.028Z,8.80
2022-11-24T09:32:56.500Z,8.80
2022-11-24T09:35:24.450Z,8.90
2022-11-24T09:37:52.333Z,8.90
2022-11-24T09:40:20.292Z,8.80
2022-11-24T09:42:59.144Z,8.90
2022-11-24T09:46:04.065Z,9.00
2022-11-24T09:48:28.454Z,9.00
2022-11-24T09:50:59.619Z,8.90
2022-11-24T09:53:33.203Z,9.00
2022-11-24T09:56:06.130Z,9.00
2022-11-24T09:58:44.102Z,9.10
2022-11-24T10:01:17.821Z,9.20
2022-11-24T10:03:48.114Z,9.30
2022-11-24T10:06:23.521Z,9.30
2022-11-24T10:09:27.395Z,9.40
2022-11-24T10:12:05.954Z,9.30
2022-11-24T10:14:59.657Z,9.30
2022-11-24T10:17:45.278Z,9.10
2022-11-24T10:20:20.119Z,9.10
2022-11-24T10:22:57.865Z,9.00
2022-11-24T10:25:31.546Z,8.80
2022-11-24T10:28:02.902Z,8.80
2022-11-24T10:30:32.273Z,8.70
2022-11-24T10:33:04.984Z,8.50
2022-11-24T10:35:38.741Z,8.40
2022-11-24T10:38:17.377Z,8.20
2022-11-24T10:40:58.251Z,8.00
2022-11-24T10:43:27.468Z,7.80
2022-11-24T10:46:00.653Z,7.60
2022-11-24T10:48:31.272Z,7.60
2022-11-24T10:51:19.414Z,7.40
2022-11-24T10:53:48.752Z,7.30
2022-11-24T10:56:16.589Z,7.10
2022-11-24T10:58:44.500Z,7.10
2022-11-24T11:01:32.788Z,7.10
2022-11-24T11:04:01.507Z,7.10
2022-11-24T11:06:31.045Z,7.30
2022-11-24T11:09:19.338Z,7.30
2022-11-24T11:11:48.775Z,7.40
2022-11-24T11:14:31.047Z,7.50
2022-11-24T11:17:00.648Z,7.40
2022-11-24T11:19:54.317Z,7.30
2022-11-24T11:22:27.966Z,7.20
2022-11-24T11:25:18.390Z,7.30
2022-11-24T11:27:46.648Z,7.40
2022-11-24T11:36:12.702Z,7.30
2022-11-24T11:38:41.409Z,7.40
2022-11-24T11:41:17.936Z,7.40
2022-11-24T11:43:49.290Z,7.50
2022-11-24T11:46:17.348Z,7.40
2022-11-24T11:48:47.302Z,7.40
2022-11-24T11:51:39.604Z,7.30
2022-11-24T11:54:12.529Z,7.30
2022-11-24T11:56:45.369Z,7.40
2022-11-24T11:59:44.928Z,7.50
2022-11-24T12:02:53.395Z,7.50
2022-11-24T12:05:31.081Z,7.60
2022-11-24T12:08:20.770Z,7.60
2022-11-24T12:10:54.957Z,7.70
2022-11-24T12:13:42.736Z,7.70
2022-11-24T12:16:29.682Z,7.70
2022-11-24T12:19:09.658Z,7.90
2022-11-24T12:21:50.869Z,8.00
2022-11-24T12:24:24.805Z,8.00
2022-11-24T12:26:56.061Z,8.00
2022-11-24T12:29:44.214Z,7.80
2022-11-24T12:32:22.529Z,7.90
2022-11-24T12:34:56.008Z,7.90
2022-11-24T12:37:41.183Z,7.90
2022-11-24T12:40:16.020Z,7.70
2022-11-24T12:42:53.276Z,7.80
2022-11-24T12:45:30.021Z,7.90
2022-11-24T12:48:18.452Z,7.90
2022-11-24T12:50:47.770Z,7.90
2022-11-24T12:53:21.736Z,8.10
2022-11-24T12:55:49.949Z,8.20
2022-11-24T12:58:25.770Z,8.30
2022-11-24T13:01:14.721Z,8.30
2022-11-24T13:03:55.759Z,8.10
2022-11-24T13:06:28.278Z,8.00
2022-11-24T13:08:57.898Z,7.90
2022-11-24T13:11:43.965Z,7.80
2022-11-24T13:14:18.776Z,7.70
2022-11-24T13:17:27.508Z,7.70
2022-11-24T13:19:42.234Z,7.50
2022-11-24T13:22:19.241Z,7.60
2022-11-24T13:25:12.988Z,7.50
2022-11-24T13:27:46.300Z,7.60
2022-11-24T13:30:59.106Z,7.70
2022-11-24T13:33:39.994Z,7.70
2022-11-24T13:36:37.520Z,7.80
2022-11-24T13:39:19.263Z,7.90
2022-11-24T13:42:41.639Z,7.90
2022-11-24T13:45:01.633Z,7.90
2022-11-24T13:47:36.396Z,7.90
2022-11-24T13:50:06.232Z,8.00
2022-11-24T13:52:41.475Z,8.00
2022-11-24T13:55:22.770Z,7.90
2022-11-24T13:57:54.229Z,8.00
2022-11-24T14:00:25.409Z,8.00
2022-11-24T14:03:00.294Z,8.00
2022-11-24T14:05:36.605Z,8.00
2022-11-24T14:08:06.605Z,8.10
2022-11-24T14:10:38.082Z,8.10
2022-11-24T14:13:26.943Z,8.00
2022-11-24T14:16:04.067Z,8.00
2022-11-24T14:18:32.644Z,8.10
2022-11-24T14:21:03.012Z,8.10
2022-11-24T14:23:32.253Z,8.20
2022-11-24T14:26:00.105Z,8.20
2022-11-24T14:28:30.190Z,8.10
2022-11-24T14:31:08.804Z,8.10
2022-11-24T14:33:37.079Z,8.00
2022-11-24T14:36:05.355Z,7.90
2022-11-24T14:38:33.257Z,7.90
2022-11-24T14:41:17.158Z,7.90
2022-11-24T14:43:46.456Z,7.80
2022-11-24T14:46:20.373Z,7.80
2022-11-24T14:48:50.456Z,7.70
2022-11-24T14:51:23.187Z,7.20
2022-11-24T14:53:54.805Z,6.60
2022-11-24T14:56:28.630Z,6.40
2022-11-24T14:58:58.827Z,6.30
2022-11-24T15:01:33.387Z,6.10
2022-11-24T15:04:32.371Z,6.10
2022-11-24T15:07:07.222Z,6.10
2022-11-24T15:09:39.876Z,6.10
2022-11-24T15:12:10.672Z,5.90
2022-11-24T15:14:50.736Z,6.00
2022-11-24T15:17:24.506Z,6.00
2022-11-24T15:19:55.365Z,6.10
2022-11-24T15:22:36.582Z,6.10
2022-11-24T15:25:20.095Z,6.00
2022-11-24T15:27:47.922Z,6.00
2022-11-24T15:30:17.342Z,6.00
2022-11-24T15:32:50.593Z,5.90
2022-11-24T15:35:18.349Z,5.90
2022-11-24T15:37:46.179Z,5.80
2022-11-24T15:40:15.677Z,5.60
2022-11-24T15:42:47.064Z,5.50
2022-11-24T15:45:14.842Z,5.50
2022-11-24T15:47:44.198Z,5.50
2022-11-24T15:50:12.852Z,5.40
2022-11-24T15:52:40.999Z,5.40
2022-11-24T15:55:17.381Z,5.30
2022-11-24T15:57:45.657Z,5.20
2022-11-24T16:00:18.712Z,5.30
2022-11-24T16:02:48.069Z,5.30
2022-11-24T16:05:20.004Z,5.30
2022-11-24T16:07:49.655Z,5.30
2022-11-24T16:10:27.910Z,5.30
2022-11-24T16:12:55.805Z,5.40
2022-11-24T16:15:23.842Z,5.40
2022-11-24T16:17:53.197Z,5.40
2022-11-24T16:20:21.393Z,5.50
2022-11-24T16:22:49.181Z,5.50
2022-11-24T16:25:17.137Z,5.50
2022-11-24T16:27:44.917Z,5.50
2022-11-24T16:30:14.471Z,5.50
2022-11-24T16:32:42.432Z,5.50
2022-11-24T16:35:11.666Z,5.40
2022-11-24T16:37:39.677Z,5.40
2022-11-24T16:40:08.523Z,5.40
2022-11-24T16:42:36.299Z,5.40
2022-11-24T16:45:04.361Z,5.40
2022-11-24T16:47:32.162Z,5.30
2022-11-24T16:50:00.070Z,5.30
2022-11-24T16:52:29.182Z,5.40
2022-11-24T16:54:56.941Z,5.40
2022-11-24T16:57:24.697Z,5.40
2022-11-24T16:59:52.448Z,5.30
2022-11-24T17:02:20.426Z,5.40
2022-11-24T17:04:49.655Z,5.30
2022-11-24T17:07:17.439Z,5.30
2022-11-24T17:09:46.620Z,5.40
2022-11-24T17:12:14.371Z,5.30
2022-11-24T17:14:42.126Z,5.30
2022-11-24T17:17:09.897Z,5.20
2022-11-24T17:19:37.911Z,5.20
2022-11-24T17:22:05.646Z,5.20
2022-11-24T17:24:33.763Z,5.20
2022-11-24T17:27:03.157Z,5.10
2022-11-24T17:29:30.982Z,5.00
2022-11-24T17:31:58.890Z,4.90
2022-11-24T17:34:26.639Z,4.90
2022-11-24T17:36:54.402Z,4.80
2022-11-24T17:39:25.146Z,4.80
2022-11-24T17:41:52.998Z,4.90
2022-11-24T17:44:22.128Z,4.80
2022-11-24T17:46:50.031Z,4.70
2022-11-24T17:49:18.307Z,4.60
2022-11-24T17:51:50.274Z,4.70
2022-11-24T17:54:47.120Z,4.60
2022-11-24T17:57:06.283Z,4.60
2022-11-24T17:59:35.409Z,4.70
2022-11-24T18:02:03.179Z,4.70
2022-11-24T18:04:31.152Z,4.70
2022-11-24T18:06:58.937Z,4.70
2022-11-24T18:09:26.719Z,4.60
2022-11-24T18:11:55.065Z,4.60
2022-11-24T18:14:22.805Z,4.60
2022-11-24T18:16:51.970Z,4.50
2022-11-24T18:19:19.841Z,4.40
2022-11-24T18:21:47.607Z,4.40
2022-11-24T18:24:18.557Z,4.30
2022-11-24T18:26:50.943Z,4.20
2022-11-24T18:29:18.711Z,4.10
2022-11-24T18:31:46.518Z,4.10
2022-11-24T18:34:15.685Z,4.10
2022-11-24T18:36:44.981Z,4.10
2022-11-24T18:39:17.673Z,4.00
2022-11-24T18:41:45.524Z,4.00
2022-11-24T18:44:13.371Z,3.90
2022-11-24T18:46:41.429Z,4.00
2022-11-24T18:49:09.190Z,4.00
2022-11-24T18:51:38.425Z,4.00
2022-11-24T18:54:06.669Z,4.00
2022-11-24T18:56:34.611Z,4.10
2022-11-24T18:59:02.521Z,4.00
2022-11-24T19:01:30.625Z,4.00
2022-11-24T19:03:59.874Z,3.90
2022-11-24T19:06:32.462Z,3.80
2022-11-24T19:09:04.208Z,3.80
2022-11-24T19:11:33.783Z,3.80
2022-11-24T19:14:02.763Z,3.80
2022-11-24T19:16:30.967Z,3.80
2022-11-24T19:19:00.258Z,3.70
2022-11-24T19:21:28.730Z,3.60
2022-11-24T19:24:02.929Z,3.60
2022-11-24T19:26:34.747Z,3.60
2022-11-24T19:29:02.845Z,3.60
2022-11-24T19:31:30.790Z,3.50
2022-11-24T19:33:59.579Z,3.50
2022-11-24T19:36:28.180Z,3.50
2022-11-24T19:38:57.781Z,3.50
2022-11-24T19:41:28.991Z,3.60
2022-11-24T19:43:59.376Z,3.70
2022-11-24T19:46:29.666Z,3.60
2022-11-24T19:49:00.216Z,3.50
2022-11-24T19:51:30.579Z,3.50
2022-11-24T19:53:58.874Z,3.50
2022-11-24T19:56:28.233Z,3.40
2022-11-24T19:58:57.868Z,3.50
2022-11-24T20:01:28.061Z,3.40
2022-11-24T20:03:58.888Z,3.40
2022-11-24T20:06:27.978Z,3.40
2022-11-24T20:08:57.749Z,3.30
2022-11-24T20:11:26.146Z,3.30
2022-11-24T20:13:54.550Z,3.20
2022-11-24T20:16:28.019Z,3.30
2022-11-24T20:18:57.141Z,3.20
2022-11-24T20:21:28.495Z,3.10
2022-11-24T20:23:57.835Z,3.10
2022-11-24T20:26:28.058Z,3.00
2022-11-24T20:28:57.584Z,3.00
2022-11-24T20:31:28.393Z,3.10
2022-11-24T20:33:56.877Z,3.10
2022-11-24T20:36:26.519Z,3.20
2022-11-24T20:38:54.713Z,3.10
2022-11-24T20:41:25.185Z,3.00
2022-11-24T20:43:54.849Z,2.90
2022-11-24T20:46:24.134Z,2.90
2022-11-24T20:48:54.305Z,2.80
2022-11-24T20:51:24.376Z,2.90
2022-11-24T20:53:54.054Z,2.90
2022-11-24T20:56:23.830Z,2.80
2022-11-24T20:58:52.304Z,2.80
2022-11-24T21:01:21.679Z,2.80
2022-11-24T21:03:54.852Z,2.80
2022-11-24T21:06:23.408Z,2.90
2022-11-24T21:08:51.569Z,2.80
2022-11-24T21:11:20.705Z,2.70
2022-11-24T21:13:49.774Z,2.70
2022-11-24T21:16:18.840Z,2.70
2022-11-24T21:18:50.980Z,2.60
2022-11-24T21:21:21.359Z,2.50
2022-11-24T21:23:49.573Z,2.50
2022-11-24T21:26:18.446Z,2.60
2022-11-24T21:28:47.549Z,2.60
2022-11-24T21:31:18.418Z,2.70
2022-11-24T21:33:47.841Z,2.70
2022-11-24T21:36:17.598Z,2.50
2022-11-24T21:38:51.201Z,2.40
2022-11-24T21:41:19.541Z,2.40
2022-11-24T21:43:47.620Z,2.40
2022-11-24T21:46:15.646Z,2.40
2022-11-24T21:48:43.720Z,2.40
2022-11-24T21:51:14.279Z,2.40
2022-11-24T21:53:42.827Z,2.30
2022-11-24T21:56:13.885Z,2.30
2022-11-24T21:58:46.558Z,2.40
2022-11-24T22:01:14.906Z,2.30
2022-11-24T22:03:42.716Z,2.30
2022-11-24T22:06:10.988Z,2.30
2022-11-24T22:08:39.111Z,2.30
2022-11-24T22:11:09.024Z,2.20
2022-11-24T22:13:38.380Z,2.20
2022-11-24T22:16:08.220Z,2.20
2022-11-24T22:18:37.615Z,2.30
2022-11-24T22:21:06.942Z,2.40
2022-11-24T22:23:36.038Z,2.30
2022-11-24T22:26:05.030Z,2.40
2022-11-24T22:28:33.726Z,2.10
2022-11-24T22:31:06.568Z,2.30
2022-11-24T22:33:34.566Z,2.40
2022-11-24T22:36:02.836Z,2.30
2022-11-24T22:38:32.382Z,2.40
2022-11-24T22:41:04.250Z,2.40
2022-11-24T22:43:33.468Z,2.40
2022-11-24T22:46:06.997Z,2.50
2022-11-24T22:48:35.337Z,2.30
2022-11-24T22:51:07.797Z,2.30
2022-11-24T22:53:35.918Z,2.30
2022-11-24T22:56:04.472Z,2.20
2022-11-24T22:58:33.416Z,2.20
2022-11-24T23:01:06.914Z,2.20
2022-11-24T23:03:35.422Z,2.10
2022-11-24T23:06:04.507Z,2.20
2022-11-24T23:08:34.941Z,2.20
2022-11-24T23:11:04.390Z,2.30
2022-11-24T23:13:32.331Z,2.30
2022-11-24T23:16:04.417Z,2.20
2022-11-24T23:18:33.792Z,2.10
2022-11-24T23:21:06.973Z,2.10
2022-11-24T23:23:35.393Z,2.10
2022-11-24T23:26:03.529Z,2.20
2022-11-24T23:28:31.640Z,2.10
2022-11-24T23:31:02.763Z,2.20
2022-11-24T23:33:31.077Z,2.20
2022-11-24T23:36:03.029Z,2.30
2022-11-24T23:38:32.544Z,2.40
2022-11-24T23:41:02.260Z,2.40
2022-11-24T23:43:30.034Z,2.20
2022-11-24T23:46:02.633Z,2.10
2022-11-24T23:48:30.786Z,2.10
2022-11-24T23:50:58.551Z,2.10
2022-11-24T23:53:27.689Z,2.10
2022-11-24T23:55:55.747Z,2.10
2022-11-24T23:58:23.817Z,2.20
